Everglades National Park, FL

6:19 PM EDT on September 28, 2016 (GMT -0400)
Westbury Estates | | Change Station

Elev 23 ft 25.49 °N, 80.50 °W | Updated 6 seconds ago

Clear
Clear
85.3 °F
Feels Like 94 °F
N
0.4
Wind Variable Wind from SSW
Gusts 2.5 mph

Today
High -- | Low -- °F
--% Chance of Precip.
Yesterday
High -- | Low -- °F
Precip. -- in
Pressure 29.99 in
Visibility 10.0 miles
Clouds Clear
Heat Index 94 °F
Dew Point 75 °F
Humidity 71%
Rainfall 1.82 in
Snow Depth Not available.
7:13 AM 7:11 PM
Waning Crescent, 4% visible
METAR KHST 282158Z AUTO 21008KT 10SM CLR 30/24 A2998 RMK AO2 SLP155 T03040236
Pressure 29.99 in
Visibility 10.0 miles
Clouds Clear
Heat Index 94 °F
Dew Point 75 °F
Humidity 71%
Rainfall 1.82 in
Snow Depth Not available.
7:13 AM 7:11 PM
Waning Crescent, 4% visible
METAR KHST 282158Z AUTO 21008KT 10SM CLR 30/24 A2998 RMK AO2 SLP155 T03040236

10-Day Weather Forecast

Almanac

Astronomy

Sep. 28, 2016 Rise Set
Actual Time
Civil Twilight
Nautical Twilight
Astronomical Twilight
Moon
Length of Visible Light
Length of Day
Tomorrow will be .
, % of the Moon is Illuminated

Today's Extremes

State Highs State Lows

Community

WunderPhotos

Upload Photos

1,942,335 photos uploaded!

WunderBlog® & News

Nearby

Air Quality

  Air Quality AQ Index Pollutant
Not available.

Snow Depth

Station Depth Elevation

Earthquake Activity

City Distance Mag. Time & Date
Minimum magnitude displayed is 2.5.

Coastal Water Temperatures

Place Temperature

Stations

Nearby Weather Stations

Station Location Temp. Windchill Dew Point Humidity Wind Precip. Elev Updated Type
                   

Watches & Warnings

There are currently no watches in effect.